createdAt,value
2024-03-12T00:01:10.079Z,75.50
2024-03-12T00:03:37.432Z,66.30
2024-03-12T00:06:05.369Z,56.80
2024-03-12T00:08:34.920Z,65.60
2024-03-12T00:11:01.302Z,67.80
2024-03-12T00:13:28.003Z,61.50
2024-03-12T00:15:55.776Z,68.60
2024-03-12T00:18:26.453Z,64.30
2024-03-12T00:20:56.564Z,75.30
2024-03-12T00:23:27.125Z,73.80
2024-03-12T00:25:53.900Z,69.30
2024-03-12T00:28:20.681Z,70.10
2024-03-12T00:30:47.166Z,62.20
2024-03-12T00:33:13.863Z,64.30
2024-03-12T00:35:44.808Z,63.60
2024-03-12T00:38:11.995Z,70.10
2024-03-12T00:40:39.945Z,75.40
2024-03-12T00:43:09.949Z,73.40
2024-03-12T00:45:40.775Z,72.20
2024-03-12T00:48:10.660Z,69.00
2024-03-12T00:50:38.321Z,75.20
2024-03-12T00:53:05.116Z,72.40
2024-03-12T00:55:32.186Z,72.10
2024-03-12T01:00:30.514Z,65.40
2024-03-12T01:03:02.260Z,64.00
2024-03-12T01:05:31.842Z,65.10
2024-03-12T01:08:00.026Z,65.20
2024-03-12T01:10:31.307Z,68.30
2024-03-12T01:13:02.434Z,62.00
2024-03-12T01:15:30.141Z,66.10
2024-03-12T01:17:57.880Z,70.00
2024-03-12T01:20:26.456Z,61.80
2024-03-12T01:22:55.317Z,73.20
2024-03-12T01:25:26.195Z,72.90
2024-03-12T01:27:58.883Z,69.50
2024-03-12T01:30:28.886Z,62.10
2024-03-12T01:32:56.009Z,75.30
2024-03-12T01:35:24.027Z,72.70
2024-03-12T01:37:50.835Z,73.50
2024-03-12T01:40:27.669Z,70.30
2024-03-12T01:42:57.905Z,70.70
2024-03-12T01:45:25.669Z,72.00
2024-03-12T01:47:53.315Z,76.40
2024-03-12T01:50:22.819Z,78.50
2024-03-12T01:52:54.306Z,72.60
2024-03-12T01:55:23.568Z,79.30
2024-03-12T01:57:53.078Z,73.20
2024-03-12T02:00:19.905Z,77.70
2024-03-12T02:02:48.554Z,79.40
2024-03-12T02:05:15.064Z,80.00
2024-03-12T02:07:41.925Z,81.90
2024-03-12T02:10:09.535Z,77.50
2024-03-12T02:12:36.712Z,82.80
2024-03-12T02:15:04.863Z,85.20
2024-03-12T02:17:31.534Z,69.30
2024-03-12T02:20:01.378Z,79.80
2024-03-12T02:22:28.850Z,74.40
2024-03-12T02:24:55.275Z,84.10
2024-03-12T02:27:21.704Z,81.80
2024-03-12T02:29:48.985Z,80.30
2024-03-12T02:32:15.596Z,83.60
2024-03-12T02:34:42.081Z,79.10
2024-03-12T02:37:08.568Z,78.30
2024-03-12T02:39:36.526Z,84.80
2024-03-12T02:42:03.302Z,92.50
2024-03-12T02:44:32.463Z,80.40
2024-03-12T02:46:58.966Z,86.60
2024-03-12T02:49:25.550Z,76.30
2024-03-12T02:51:53.089Z,82.00
2024-03-12T02:54:22.036Z,79.30
2024-03-12T02:56:52.413Z,79.10
2024-03-12T02:59:18.810Z,88.20
2024-03-12T03:01:45.274Z,84.30
2024-03-12T03:04:11.786Z,86.00
2024-03-12T03:06:38.536Z,78.90
2024-03-12T03:09:10.302Z,88.70
2024-03-12T03:11:39.932Z,73.40
2024-03-12T03:14:06.560Z,84.80
2024-03-12T03:16:34.366Z,87.40
2024-03-12T03:19:00.936Z,79.60
2024-03-12T03:21:28.381Z,78.80
2024-03-12T03:23:57.739Z,91.60
2024-03-12T03:26:24.470Z,77.30
2024-03-12T03:28:50.998Z,79.10
2024-03-12T03:31:17.551Z,73.60
2024-03-12T03:33:48.682Z,84.40
2024-03-12T03:36:18.375Z,83.00
2024-03-12T03:38:45.128Z,70.90
2024-03-12T03:41:14.661Z,81.20
2024-03-12T03:43:44.318Z,78.00
2024-03-12T03:46:11.014Z,70.90
2024-03-12T03:48:37.518Z,75.10
2024-03-12T03:51:04.565Z,70.30
2024-03-12T03:53:30.966Z,70.80
2024-03-12T03:55:57.451Z,68.40
2024-03-12T03:58:26.587Z,75.20
2024-03-12T04:00:56.023Z,67.30
2024-03-12T04:03:22.469Z,73.70
2024-03-12T04:05:49.015Z,74.50
2024-03-12T04:08:17.571Z,72.40
2024-03-12T04:10:44.113Z,72.10
2024-03-12T04:13:10.875Z,77.10
2024-03-12T04:15:37.518Z,70.30
2024-03-12T04:18:07.182Z,66.10
2024-03-12T04:20:33.681Z,67.50
2024-03-12T04:23:00.122Z,68.60
2024-03-12T04:25:29.866Z,74.50
2024-03-12T04:27:57.204Z,74.90
2024-03-12T04:30:23.771Z,76.80
2024-03-12T04:32:50.191Z,60.20
2024-03-12T04:35:17.058Z,71.80
2024-03-12T04:37:43.621Z,69.40
2024-03-12T04:40:13.453Z,84.30
2024-03-12T04:42:40.319Z,81.00
2024-03-12T04:45:07.879Z,77.40
2024-03-12T04:47:36.686Z,87.60
2024-03-12T04:52:31.042Z,78.80
2024-03-12T04:54:58.328Z,79.40
2024-03-12T04:57:25.432Z,73.90
2024-03-12T04:59:51.950Z,76.40
2024-03-12T05:02:18.297Z,81.60
2024-03-12T05:04:44.847Z,80.80
2024-03-12T05:07:13.061Z,82.70
2024-03-12T05:09:39.821Z,84.00
2024-03-12T05:12:06.594Z,80.70
2024-03-12T05:14:35.947Z,77.20
2024-03-12T05:17:02.401Z,70.30
2024-03-12T05:19:28.877Z,79.70
2024-03-12T05:21:55.406Z,79.10
2024-03-12T05:24:21.923Z,69.80
2024-03-12T05:26:51.459Z,78.10
2024-03-12T05:29:22.017Z,75.00
2024-03-12T05:31:48.509Z,67.80
2024-03-12T05:34:19.987Z,70.00
2024-03-12T05:36:50.061Z,59.80
2024-03-12T05:39:21.717Z,64.10
2024-03-12T05:42:11.224Z,58.00
2024-03-12T05:45:17.254Z,57.90
2024-03-12T05:48:02.570Z,59.20
2024-03-12T05:50:29.150Z,60.80
2024-03-12T05:52:55.519Z,56.30
2024-03-12T05:55:22.248Z,58.90
2024-03-12T05:57:48.730Z,58.70
2024-03-12T06:00:15.597Z,61.70
2024-03-12T06:02:45.898Z,56.30
2024-03-12T06:05:14.246Z,55.10
2024-03-12T06:07:42.647Z,53.80
2024-03-12T06:10:10.281Z,47.30
2024-03-12T06:12:40.463Z,48.20
2024-03-12T06:15:07.880Z,45.20
2024-03-12T06:17:38.647Z,43.90
2024-03-12T06:20:09.274Z,39.00
2024-03-12T06:22:38.172Z,38.20
2024-03-12T06:25:05.392Z,36.10
2024-03-12T06:27:33.535Z,33.30
2024-03-12T06:30:00.827Z,33.10
2024-03-12T06:32:32.835Z,28.30
2024-03-12T06:34:59.618Z,31.20
2024-03-12T06:37:28.293Z,30.80
2024-03-12T06:39:55.948Z,29.00
2024-03-12T06:42:30.544Z,33.70
2024-03-12T06:44:58.056Z,28.10
2024-03-12T06:47:34.096Z,30.90
2024-03-12T06:50:00.609Z,32.60
2024-03-12T06:52:27.976Z,36.50
2024-03-12T06:54:54.763Z,35.20
2024-03-12T06:57:25.688Z,41.00
2024-03-12T06:59:52.562Z,43.30
2024-03-12T07:02:19.307Z,39.60
2024-03-12T07:04:48.572Z,41.30
2024-03-12T07:07:20.463Z,41.90
2024-03-12T07:09:47.684Z,42.10
2024-03-12T07:12:17.879Z,45.20
2024-03-12T07:14:47.071Z,43.20
2024-03-12T07:17:15.725Z,41.50
2024-03-12T07:19:44.092Z,50.10
2024-03-12T07:22:12.268Z,48.10
2024-03-12T07:29:37.755Z,44.10
2024-03-12T07:32:06.055Z,42.30
2024-03-12T07:34:32.630Z,57.10
2024-03-12T07:37:00.651Z,48.70
2024-03-12T07:39:32.470Z,46.40
2024-03-12T07:42:00.519Z,48.30
2024-03-12T07:44:27.842Z,53.80
2024-03-12T07:46:56.056Z,50.80
2024-03-12T07:49:23.182Z,49.30
2024-03-12T07:51:50.610Z,47.40
2024-03-12T07:54:20.295Z,49.30
2024-03-12T07:56:50.157Z,53.20
2024-03-12T07:59:18.176Z,45.50
2024-03-12T08:01:47.589Z,47.40
2024-03-12T08:04:14.230Z,49.60
2024-03-12T08:06:41.511Z,45.00
2024-03-12T08:09:08.919Z,39.00
2024-03-12T08:11:35.677Z,46.70
2024-03-12T08:14:02.233Z,40.00
2024-03-12T08:16:30.242Z,44.00
2024-03-12T08:18:59.505Z,42.80
2024-03-12T08:21:28.693Z,42.10
2024-03-12T08:23:57.378Z,43.20
2024-03-12T08:26:23.795Z,42.30
2024-03-12T08:28:52.403Z,44.50
2024-03-12T08:31:30.688Z,43.50
2024-03-12T08:34:02.060Z,42.20
2024-03-12T08:36:28.562Z,39.50
2024-03-12T08:38:55.325Z,44.20
2024-03-12T08:41:21.912Z,44.90
2024-03-12T08:43:48.294Z,54.70
2024-03-12T08:46:15.461Z,48.80
2024-03-12T08:48:42.150Z,52.10
2024-03-12T08:51:09.970Z,48.60
2024-03-12T08:53:37.075Z,55.10
2024-03-12T08:56:04.703Z,61.70
2024-03-12T08:58:31.398Z,54.10
2024-03-12T09:00:58.736Z,50.70
2024-03-12T09:03:25.739Z,53.20
2024-03-12T09:05:54.312Z,52.50
2024-03-12T09:10:48.962Z,53.50
2024-03-12T09:13:20.696Z,47.70
2024-03-12T09:15:49.589Z,56.00
2024-03-12T09:18:24.497Z,56.90
2024-03-12T09:20:53.829Z,53.30
2024-03-12T09:23:20.344Z,47.10
2024-03-12T09:25:47.073Z,54.10
2024-03-12T09:28:15.978Z,55.30
2024-03-12T09:30:42.702Z,47.40
2024-03-12T09:33:09.200Z,50.00
2024-03-12T09:35:39.113Z,47.00
2024-03-12T09:38:06.296Z,53.60
2024-03-12T09:40:33.538Z,51.10
2024-03-12T09:43:04.859Z,44.20
2024-03-12T09:45:31.971Z,48.30
2024-03-12T09:47:58.559Z,50.90
2024-03-12T09:50:26.518Z,52.90
2024-03-12T09:52:53.192Z,43.20
2024-03-12T09:55:20.855Z,35.80
2024-03-12T09:57:48.123Z,39.60
2024-03-12T10:00:26.913Z,39.40
2024-03-12T10:02:53.444Z,37.30
2024-03-12T10:05:23.072Z,37.40
2024-03-12T10:08:08.726Z,32.50
2024-03-12T10:10:39.696Z,34.60
2024-03-12T10:13:06.516Z,36.60
2024-03-12T10:15:38.285Z,35.00
2024-03-12T10:18:08.268Z,40.30
2024-03-12T10:20:49.009Z,33.20
2024-03-12T10:23:16.834Z,37.70
2024-03-12T10:25:45.907Z,32.80
2024-03-12T10:28:15.719Z,31.90
2024-03-12T10:30:43.427Z,31.80
2024-03-12T10:33:17.402Z,31.20
2024-03-12T10:35:45.558Z,28.50
2024-03-12T10:38:27.078Z,31.30
2024-03-12T10:40:59.558Z,33.70
2024-03-12T10:43:26.029Z,28.50
2024-03-12T10:45:53.251Z,30.80
2024-03-12T10:48:20.202Z,32.00
2024-03-12T10:50:46.800Z,34.70
2024-03-12T10:53:13.237Z,36.40
2024-03-12T10:55:39.838Z,36.30
2024-03-12T10:58:12.641Z,31.50
2024-03-12T11:00:41.977Z,30.80
2024-03-12T11:03:11.350Z,27.40
2024-03-12T11:05:43.331Z,30.30
2024-03-12T11:08:15.547Z,31.60
2024-03-12T11:10:43.401Z,31.20
2024-03-12T11:13:10.127Z,31.10
2024-03-12T11:15:36.994Z,27.00
2024-03-12T11:18:06.504Z,32.30
2024-03-12T11:20:34.562Z,25.90
2024-03-12T11:23:02.144Z,26.50
2024-03-12T11:25:35.619Z,25.50
2024-03-12T11:28:24.878Z,31.40
2024-03-12T11:31:08.068Z,24.90
2024-03-12T11:33:53.851Z,21.60
2024-03-12T11:36:30.398Z,20.00
2024-03-12T11:39:05.941Z,21.20
2024-03-12T11:42:07.324Z,22.60
2024-03-12T11:44:53.632Z,21.70
2024-03-12T11:47:38.076Z,21.70
2024-03-12T11:50:11.625Z,18.10
2024-03-12T11:52:38.456Z,20.60
2024-03-12T11:55:08.849Z,22.70
2024-03-12T11:57:36.038Z,22.70
2024-03-12T12:00:02.964Z,24.00
2024-03-12T12:02:29.391Z,24.00
2024-03-12T12:04:59.731Z,26.60
2024-03-12T12:07:26.825Z,24.90
2024-03-12T12:09:53.579Z,29.60
2024-03-12T12:12:20.994Z,29.70
2024-03-12T12:14:51.078Z,26.00
2024-03-12T12:17:22.926Z,29.60
2024-03-12T12:20:17.960Z,29.40
2024-03-12T12:22:47.220Z,30.30
2024-03-12T12:25:20.694Z,26.40
2024-03-12T12:27:50.529Z,29.10
2024-03-12T12:30:18.630Z,31.40
2024-03-12T12:32:46.889Z,29.20
2024-03-12T12:35:15.236Z,28.10
2024-03-12T12:37:42.860Z,31.00
2024-03-12T12:40:11.090Z,27.70
2024-03-12T12:42:41.001Z,26.40
2024-03-12T12:45:09.906Z,27.50
2024-03-12T12:47:37.453Z,26.90
2024-03-12T12:50:04.659Z,27.90
2024-03-12T12:52:31.390Z,25.90
2024-03-12T12:55:01.858Z,27.10
2024-03-12T12:57:31.815Z,25.50
2024-03-12T12:59:58.445Z,27.60
2024-03-12T13:02:31.339Z,26.20
2024-03-12T13:05:04.192Z,23.30
2024-03-12T13:07:35.997Z,26.20
2024-03-12T13:10:20.694Z,26.40
2024-03-12T13:12:48.188Z,29.30
2024-03-12T13:15:27.994Z,33.30
2024-03-12T13:17:54.786Z,26.00
2024-03-12T13:20:21.847Z,30.10
2024-03-12T13:22:54.522Z,26.30
2024-03-12T13:25:21.977Z,27.40
2024-03-12T13:27:48.905Z,28.40
2024-03-12T13:30:15.929Z,28.90
2024-03-12T13:32:45.657Z,24.50
2024-03-12T13:35:12.349Z,26.60
2024-03-12T13:37:40.382Z,24.10
2024-03-12T13:40:07.688Z,24.20
2024-03-12T13:42:36.334Z,25.20
2024-03-12T13:45:03.296Z,27.80
2024-03-12T13:47:34.021Z,23.90
2024-03-12T13:50:06.829Z,24.60
2024-03-12T13:52:34.090Z,26.60
2024-03-12T13:55:01.203Z,26.20
2024-03-12T13:57:28.296Z,27.20
2024-03-12T13:59:54.714Z,27.60
2024-03-12T14:02:24.375Z,26.90
2024-03-12T14:04:51.012Z,26.20
2024-03-12T14:07:19.687Z,25.70
2024-03-12T14:09:48.526Z,26.40
2024-03-12T14:12:15.068Z,28.90
2024-03-12T14:14:42.186Z,30.00
2024-03-12T14:17:08.680Z,31.00
2024-03-12T14:19:35.432Z,23.40
2024-03-12T14:22:02.252Z,32.00
2024-03-12T14:24:28.976Z,28.20
2024-03-12T14:26:55.410Z,28.50
2024-03-12T14:29:22.332Z,28.60
2024-03-12T14:31:49.083Z,31.40
2024-03-12T14:34:15.599Z,30.90
2024-03-12T14:36:42.055Z,28.60
2024-03-12T14:39:09.090Z,28.30
2024-03-12T14:41:35.647Z,28.90
2024-03-12T14:44:02.069Z,32.10
2024-03-12T14:46:30.712Z,29.90
2024-03-12T14:49:01.156Z,28.10
2024-03-12T14:51:28.278Z,26.10
2024-03-12T14:53:54.927Z,30.70
2024-03-12T14:56:21.963Z,25.80
2024-03-12T14:58:48.301Z,30.40
2024-03-12T15:01:14.944Z,29.30
2024-03-12T15:03:42.333Z,32.80
2024-03-12T15:06:10.565Z,30.80
2024-03-12T15:08:37.189Z,26.40
2024-03-12T15:11:04.538Z,28.00
2024-03-12T15:13:34.597Z,30.80
2024-03-12T15:16:01.291Z,27.10
2024-03-12T15:18:28.869Z,27.90
2024-03-12T15:20:55.851Z,30.20
2024-03-12T15:23:22.391Z,30.90
2024-03-12T15:25:50.173Z,34.20
2024-03-12T15:28:16.743Z,31.90
2024-03-12T15:30:44.266Z,27.60
2024-03-12T15:33:12.101Z,32.80
2024-03-12T15:35:39.700Z,28.40
2024-03-12T15:38:06.393Z,28.10
2024-03-12T15:40:33.474Z,27.80
2024-03-12T15:43:00.998Z,30.80
2024-03-12T15:45:27.573Z,33.00
2024-03-12T15:47:54.018Z,26.30
2024-03-12T15:50:22.987Z,30.50
2024-03-12T15:52:49.466Z,28.00
2024-03-12T15:55:16.226Z,32.80
2024-03-12T15:57:46.107Z,35.60
2024-03-12T16:00:16.456Z,35.00
2024-03-12T16:02:43.808Z,30.00
2024-03-12T16:05:10.546Z,33.40
2024-03-12T16:07:37.437Z,34.60
2024-03-12T16:10:09.856Z,33.50
2024-03-12T16:12:37.428Z,32.70
2024-03-12T16:15:06.652Z,34.60
2024-03-12T16:20:23.340Z,32.30
2024-03-12T16:22:49.750Z,35.40
2024-03-12T16:25:16.248Z,34.10
2024-03-12T16:27:44.552Z,33.90
2024-03-12T16:30:14.589Z,37.50
2024-03-12T16:32:42.140Z,36.70
2024-03-12T16:35:11.932Z,36.60
2024-03-12T16:37:39.330Z,33.70
2024-03-12T16:40:10.469Z,32.60
2024-03-12T16:42:37.461Z,36.80
2024-03-12T16:45:04.863Z,36.70
2024-03-12T16:47:32.070Z,38.60
2024-03-12T16:50:01.142Z,35.60
2024-03-12T16:52:28.673Z,38.30
2024-03-12T16:54:56.006Z,39.80
2024-03-12T16:57:23.039Z,33.10
2024-03-12T16:59:56.974Z,44.20
2024-03-12T17:02:30.638Z,46.60
2024-03-12T17:05:00.471Z,44.30
2024-03-12T17:07:27.060Z,42.80
2024-03-12T17:09:54.785Z,44.70
2024-03-12T17:12:26.117Z,43.10
2024-03-12T17:14:52.830Z,40.40
2024-03-12T17:17:24.292Z,38.80
2024-03-12T17:19:52.549Z,42.70
2024-03-12T17:22:21.367Z,40.30
2024-03-12T17:24:48.993Z,38.90
2024-03-12T17:27:16.405Z,38.30
2024-03-12T17:29:43.919Z,41.50
2024-03-12T17:32:13.707Z,36.80
2024-03-12T17:34:43.385Z,45.60
2024-03-12T17:37:16.773Z,42.00
2024-03-12T17:39:47.530Z,45.60
2024-03-12T17:42:15.495Z,45.30
2024-03-12T17:44:42.394Z,41.40
2024-03-12T17:47:09.341Z,45.50
2024-03-12T17:49:40.340Z,40.40
2024-03-12T17:52:09.716Z,40.40
2024-03-12T17:54:41.295Z,47.10
2024-03-12T17:57:10.080Z,43.00
2024-03-12T17:59:39.847Z,49.70
2024-03-12T18:02:16.160Z,45.90
2024-03-12T18:04:43.255Z,45.30
2024-03-12T18:07:24.428Z,46.20
2024-03-12T18:09:56.068Z,43.10
2024-03-12T18:12:22.940Z,44.90
2024-03-12T18:14:50.075Z,47.60
2024-03-12T18:17:21.664Z,44.80
2024-03-12T18:19:48.335Z,42.10
2024-03-12T18:22:15.518Z,45.80
2024-03-12T18:24:42.095Z,40.30
2024-03-12T18:27:08.659Z,45.30
2024-03-12T18:29:43.327Z,46.30
2024-03-12T18:32:11.640Z,51.40
2024-03-12T18:34:38.860Z,45.70
2024-03-12T18:37:07.124Z,48.00
2024-03-12T18:39:36.712Z,48.40
2024-03-12T18:42:03.202Z,50.20
2024-03-12T18:44:29.652Z,45.00
2024-03-12T18:46:57.148Z,46.40
2024-03-12T18:49:24.088Z,47.30
2024-03-12T18:51:52.541Z,53.70
2024-03-12T18:54:19.389Z,53.10
2024-03-12T18:56:50.010Z,53.30
2024-03-12T18:59:17.181Z,52.90
2024-03-12T19:01:44.575Z,49.90
2024-03-12T19:04:11.172Z,48.10
2024-03-12T19:06:38.854Z,52.90
2024-03-12T19:09:05.909Z,51.50
2024-03-12T19:11:33.232Z,49.50
2024-03-12T19:14:00.194Z,53.90
2024-03-12T19:16:26.778Z,48.40
2024-03-12T19:18:53.440Z,48.80
2024-03-12T19:21:23.121Z,52.00
2024-03-12T19:23:50.081Z,57.00
2024-03-12T19:26:18.661Z,54.60
2024-03-12T19:28:46.724Z,54.80
2024-03-12T19:31:16.789Z,57.30
2024-03-12T19:33:44.881Z,56.80
2024-03-12T19:36:13.239Z,54.70
2024-03-12T19:38:40.390Z,53.10
2024-03-12T19:41:13.621Z,51.70
2024-03-12T19:43:40.896Z,53.60
2024-03-12T19:46:09.006Z,44.70
2024-03-12T19:48:37.579Z,55.10
2024-03-12T19:53:31.665Z,55.00
2024-03-12T19:55:58.319Z,54.10
2024-03-12T19:58:26.161Z,49.70
2024-03-12T20:00:54.424Z,48.30
2024-03-12T20:03:26.128Z,47.60
2024-03-12T20:05:56.249Z,52.10
2024-03-12T20:08:24.250Z,46.90
2024-03-12T20:10:50.870Z,54.90
2024-03-12T20:13:17.664Z,49.20
2024-03-12T20:15:46.973Z,48.70
2024-03-12T20:18:14.971Z,45.80
2024-03-12T20:20:43.957Z,49.00
2024-03-12T20:23:13.181Z,56.70
2024-03-12T20:25:41.015Z,49.30
2024-03-12T20:28:11.467Z,43.90
2024-03-12T20:30:41.416Z,47.30
2024-03-12T20:33:09.791Z,40.60
2024-03-12T20:35:38.850Z,49.00
2024-03-12T20:38:10.055Z,43.90
2024-03-12T20:40:36.979Z,46.00
2024-03-12T20:43:03.671Z,39.80
2024-03-12T20:45:30.813Z,45.50
2024-03-12T20:47:57.614Z,47.70
2024-03-12T20:50:24.225Z,45.20
2024-03-12T20:52:51.645Z,46.50
2024-03-12T20:55:19.509Z,45.10
2024-03-12T20:57:49.644Z,41.00
2024-03-12T21:00:33.268Z,48.20
2024-03-12T21:02:59.908Z,42.10
2024-03-12T21:05:31.354Z,44.10
2024-03-12T21:07:58.408Z,42.60
2024-03-12T21:10:25.838Z,41.00
2024-03-12T21:12:54.714Z,41.20
2024-03-12T21:15:23.570Z,37.10
2024-03-12T21:17:50.345Z,39.90
2024-03-12T21:20:22.578Z,37.40
2024-03-12T21:22:50.644Z,34.80
2024-03-12T21:25:18.850Z,36.90
2024-03-12T21:30:15.442Z,36.80
2024-03-12T21:32:42.671Z,32.40
2024-03-12T21:35:10.507Z,31.40
2024-03-12T21:37:39.962Z,31.30
2024-03-12T21:40:12.119Z,32.50
2024-03-12T21:42:39.529Z,27.10
2024-03-12T21:45:10.857Z,27.30
2024-03-12T21:47:46.145Z,29.30
2024-03-12T21:50:17.572Z,30.50
2024-03-12T21:52:46.193Z,25.50
2024-03-12T21:55:13.112Z,31.30
2024-03-12T21:57:44.603Z,30.60
2024-03-12T22:00:19.874Z,29.00
2024-03-12T22:02:47.416Z,24.90
2024-03-12T22:05:15.887Z,28.40
2024-03-12T22:07:44.544Z,31.50
2024-03-12T22:10:14.290Z,37.70
2024-03-12T22:12:42.057Z,38.00
2024-03-12T22:15:12.266Z,37.20
2024-03-12T22:17:38.931Z,36.10
2024-03-12T22:20:09.413Z,38.40
2024-03-12T22:22:38.447Z,37.80
2024-03-12T22:25:05.581Z,42.30
2024-03-12T22:27:32.204Z,37.90
2024-03-12T22:29:59.145Z,40.30
2024-03-12T22:32:27.874Z,39.60
2024-03-12T22:34:55.736Z,41.20
2024-03-12T22:37:22.581Z,40.30
2024-03-12T22:39:49.626Z,43.00
2024-03-12T22:42:16.691Z,39.20
2024-03-12T22:44:43.411Z,48.70
2024-03-12T22:47:11.814Z,37.90
2024-03-12T22:52:08.340Z,31.50
2024-03-12T22:54:34.830Z,41.80
2024-03-12T22:57:02.323Z,35.40
2024-03-12T22:59:29.098Z,36.60
2024-03-12T23:01:56.999Z,36.70
2024-03-12T23:04:25.413Z,33.40
2024-03-12T23:06:54.246Z,32.90
2024-03-12T23:09:20.792Z,38.00
2024-03-12T23:11:47.559Z,32.30
2024-03-12T23:14:17.179Z,36.00
2024-03-12T23:16:44.176Z,37.00
2024-03-12T23:19:12.463Z,35.10
2024-03-12T23:21:39.447Z,33.40
2024-03-12T23:24:06.858Z,39.30
2024-03-12T23:26:33.282Z,33.20
2024-03-12T23:28:59.646Z,34.70
2024-03-12T23:31:26.716Z,35.20
2024-03-12T23:34:01.365Z,42.70
2024-03-12T23:36:31.474Z,36.70
2024-03-12T23:38:58.024Z,31.10
2024-03-12T23:41:24.797Z,32.20
2024-03-12T23:43:51.704Z,34.10
2024-03-12T23:46:20.158Z,33.50
2024-03-12T23:51:14.018Z,33.90
2024-03-12T23:53:40.510Z,29.20
2024-03-12T23:56:07.207Z,33.60
2024-03-12T23:58:34.920Z,29.10
